Happy Valley, Oregon
Current Conditions -  °F | °C
As of 3:53 AM on Sunday 23 Nov 2014 (Local Time) from KTTD Reporting Station
Light Rain Light Rain  
Wind Chill: 48°   Ceiling: 6000
Heat Index: 48°   Visibility: 10mi
Dew Point: 43°   Wind: 3mph
Humidity: 83%   Direction: 340°NNW
Pressure: 30.28"   Gusts: NA
Location:  45.45°N, 122.53°W
Report Text: KTTD 231153Z AUTO 34003KT 10SM -RA FEW049 OVC060 09/06 A3028 RMK AO2 RAB53 SLP253 P0000 60000 70011 T00890061 10100 20067 50004
Loading
Personal Weather Stations






























Interactive Weather Map New forecast layout! Learn more

10-Day Weather Forecast

Advertisements
Track Severe Weather on mobile